THY9HW LTFM-LROP
Flight info
| Callsign | THY9HW |
|---|---|
| Flight time | 0h 48m |
| Altitude | 36000 |
| Route | IBLAX1D/35L IBLAX P727 BGS L622 GONGO DCT KOMAN DCT OBUGA |
| Aircraft | B789/H-SDE1E2E3FGHIJ2J3J4J5M1RWXY/LB1D1 |
Departure
| Time | 2026-05-07 14:56 |
|---|---|
| Airport | İstanbul Airport (LTFM) |
Arrival
| Time | 2026-05-07 15:45 |
|---|---|
| Airport | Bucharest Henri Coandă International Airport (LROP) |
| Time | Latitude | Longitude | Altitude | Speed | Heading |
|---|---|---|---|---|---|
| 2026-05-07 14:30 | 41.25912 | 28.73526 | 339 ft | 0 kts | 104° |
| 2026-05-07 14:45 | 41.25916 | 28.73505 | 338 ft | 3 kts | 107° |
| 2026-05-07 14:45 | 41.25924 | 28.73475 | 336 ft | 3 kts | 109° |
| 2026-05-07 14:46 | 41.25930 | 28.73451 | 335 ft | 3 kts | 101° |
| 2026-05-07 14:46 | 41.25929 | 28.73427 | 338 ft | 3 kts | 41° |
| 2026-05-07 14:46 | 41.25911 | 28.73416 | 339 ft | 3 kts | 17° |
| 2026-05-07 14:46 | 41.25893 | 28.73408 | 335 ft | 0 kts | 17° |
| 2026-05-07 14:50 | 41.25896 | 28.73410 | 336 ft | 1 kts | 17° |
| 2026-05-07 14:51 | 41.25910 | 28.73415 | 337 ft | 3 kts | 17° |
| 2026-05-07 14:51 | 41.25931 | 28.73424 | 337 ft | 4 kts | 17° |
| 2026-05-07 14:51 | 41.25960 | 28.73436 | 338 ft | 5 kts | 17° |
| 2026-05-07 14:51 | 41.26000 | 28.73452 | 337 ft | 7 kts | 17° |
| 2026-05-07 14:52 | 41.26052 | 28.73472 | 334 ft | 9 kts | 15° |
| 2026-05-07 14:52 | 41.26118 | 28.73499 | 338 ft | 11 kts | 18° |
| 2026-05-07 14:52 | 41.26194 | 28.73509 | 336 ft | 10 kts | 337° |
| 2026-05-07 14:52 | 41.26219 | 28.73441 | 337 ft | 8 kts | 273° |
| 2026-05-07 14:53 | 41.26221 | 28.73357 | 335 ft | 10 kts | 271° |
| 2026-05-07 14:53 | 41.26221 | 28.73261 | 338 ft | 11 kts | 269° |
| 2026-05-07 14:53 | 41.26218 | 28.73151 | 336 ft | 12 kts | 267° |
| 2026-05-07 14:53 | 41.26216 | 28.73035 | 337 ft | 11 kts | 269° |
| 2026-05-07 14:54 | 41.26216 | 28.73011 | 337 ft | 0 kts | 269° |
| 2026-05-07 14:54 | 41.26216 | 28.73007 | 335 ft | 1 kts | 269° |
| 2026-05-07 14:54 | 41.26216 | 28.72981 | 339 ft | 5 kts | 269° |
| 2026-05-07 14:54 | 41.26215 | 28.72907 | 337 ft | 11 kts | 269° |
| 2026-05-07 14:55 | 41.26214 | 28.72786 | 339 ft | 14 kts | 269° |
| 2026-05-07 14:55 | 41.26213 | 28.72650 | 338 ft | 15 kts | 268° |
| 2026-05-07 14:55 | 41.26243 | 28.72536 | 339 ft | 11 kts | 335° |
| 2026-05-07 14:55 | 41.26316 | 28.72524 | 336 ft | 12 kts | 359° |
| 2026-05-07 14:56 | 41.26569 | 28.72520 | 338 ft | 67 kts | 359° |
| 2026-05-07 14:56 | 41.27255 | 28.72505 | 336 ft | 128 kts | 358° |
| 2026-05-07 14:56 | 41.28325 | 28.72479 | 413 ft | 171 kts | 357° |
| 2026-05-07 14:56 | 41.29467 | 28.72379 | 1266 ft | 166 kts | 357° |
| 2026-05-07 14:57 | 41.30675 | 28.72366 | 1832 ft | 181 kts | 2° |
| 2026-05-07 14:57 | 41.31946 | 28.72461 | 2659 ft | 182 kts | 4° |
| 2026-05-07 14:57 | 41.33232 | 28.72510 | 3450 ft | 188 kts | 0° |
| 2026-05-07 14:57 | 41.34613 | 28.72503 | 3946 ft | 211 kts | 360° |
| 2026-05-07 14:58 | 41.36175 | 28.72511 | 4338 ft | 240 kts | 0° |
| 2026-05-07 14:58 | 41.37937 | 28.72486 | 4817 ft | 265 kts | 352° |
| 2026-05-07 14:58 | 41.39611 | 28.71510 | 5770 ft | 265 kts | 327° |
| 2026-05-07 14:58 | 41.41291 | 28.70416 | 6687 ft | 271 kts | 337° |
| 2026-05-07 14:59 | 41.43022 | 28.69477 | 7669 ft | 274 kts | 336° |
| 2026-05-07 14:59 | 41.44795 | 28.68389 | 8617 ft | 279 kts | 333° |
| 2026-05-07 14:59 | 41.46527 | 28.67187 | 9535 ft | 283 kts | 330° |
| 2026-05-07 14:59 | 41.48249 | 28.65862 | 10363 ft | 292 kts | 329° |
| 2026-05-07 15:00 | 41.50093 | 28.64465 | 10611 ft | 318 kts | 330° |
| 2026-05-07 15:00 | 41.52086 | 28.63008 | 10908 ft | 340 kts | 331° |
| 2026-05-07 15:00 | 41.54184 | 28.61474 | 11832 ft | 340 kts | 330° |
| 2026-05-07 15:00 | 41.56239 | 28.59951 | 12598 ft | 344 kts | 330° |
| 2026-05-07 15:01 | 41.57782 | 28.58803 | 13169 ft | 346 kts | 330° |
| 2026-05-07 15:01 | 41.58768 | 28.58071 | 13506 ft | 349 kts | 331° |
| 2026-05-07 15:01 | 41.60902 | 28.56492 | 14250 ft | 352 kts | 331° |
| 2026-05-07 15:01 | 41.63020 | 28.54925 | 14961 ft | 355 kts | 331° |
| 2026-05-07 15:02 | 41.65192 | 28.53312 | 15658 ft | 358 kts | 331° |
| 2026-05-07 15:02 | 41.67376 | 28.51689 | 16327 ft | 361 kts | 330° |
| 2026-05-07 15:02 | 41.69580 | 28.50051 | 16961 ft | 364 kts | 331° |
| 2026-05-07 15:02 | 41.71802 | 28.48399 | 17603 ft | 367 kts | 331° |
| 2026-05-07 15:03 | 41.74042 | 28.46733 | 18222 ft | 369 kts | 331° |
| 2026-05-07 15:03 | 41.76296 | 28.45053 | 18789 ft | 373 kts | 330° |
| 2026-05-07 15:03 | 41.78570 | 28.43359 | 19326 ft | 375 kts | 330° |
| 2026-05-07 15:03 | 41.80858 | 28.41651 | 19895 ft | 378 kts | 330° |
| 2026-05-07 15:04 | 41.83163 | 28.39929 | 20415 ft | 381 kts | 330° |
| 2026-05-07 15:04 | 41.85325 | 28.38313 | 20874 ft | 383 kts | 330° |
| 2026-05-07 15:04 | 41.87681 | 28.36552 | 21379 ft | 386 kts | 330° |
| 2026-05-07 15:04 | 41.90036 | 28.34788 | 21835 ft | 389 kts | 330° |
| 2026-05-07 15:05 | 41.92404 | 28.33013 | 22303 ft | 391 kts | 330° |
| 2026-05-07 15:05 | 41.94792 | 28.31222 | 22749 ft | 394 kts | 330° |
| 2026-05-07 15:05 | 41.97143 | 28.29329 | 23148 ft | 396 kts | 322° |
| 2026-05-07 15:05 | 41.99145 | 28.26779 | 23546 ft | 398 kts | 309° |
| 2026-05-07 15:06 | 42.00760 | 28.23748 | 23897 ft | 401 kts | 305° |
| 2026-05-07 15:06 | 42.02338 | 28.20640 | 24290 ft | 403 kts | 304° |
| 2026-05-07 15:06 | 42.03902 | 28.17511 | 24716 ft | 403 kts | 304° |
| 2026-05-07 15:06 | 42.05468 | 28.14393 | 25227 ft | 402 kts | 305° |
| 2026-05-07 15:07 | 42.07036 | 28.11293 | 25714 ft | 400 kts | 305° |
| 2026-05-07 15:07 | 42.08595 | 28.08200 | 26209 ft | 399 kts | 305° |
| 2026-05-07 15:07 | 42.10126 | 28.05152 | 26682 ft | 397 kts | 305° |
| 2026-05-07 15:07 | 42.11691 | 28.02032 | 27201 ft | 395 kts | 305° |
| 2026-05-07 15:08 | 42.13225 | 27.98975 | 27696 ft | 394 kts | 305° |
| 2026-05-07 15:08 | 42.14762 | 27.95911 | 28080 ft | 396 kts | 305° |
| 2026-05-07 15:08 | 42.17876 | 27.89685 | 28096 ft | 398 kts | 305° |
| 2026-05-07 15:09 | 42.20944 | 27.83551 | 28092 ft | 396 kts | 306° |
| 2026-05-07 15:09 | 42.22787 | 27.80744 | 28117 ft | 395 kts | 319° |
| 2026-05-07 15:09 | 42.25014 | 27.78563 | 28115 ft | 397 kts | 330° |
| 2026-05-07 15:10 | 42.29862 | 27.74999 | 28112 ft | 397 kts | 331° |
| 2026-05-07 15:10 | 42.34733 | 27.71447 | 28111 ft | 397 kts | 331° |
| 2026-05-07 15:11 | 42.39583 | 27.67886 | 28109 ft | 397 kts | 331° |
| 2026-05-07 15:11 | 42.44444 | 27.64318 | 28110 ft | 397 kts | 331° |
| 2026-05-07 15:12 | 42.49305 | 27.60741 | 28109 ft | 398 kts | 331° |
| 2026-05-07 15:12 | 42.54158 | 27.57164 | 28112 ft | 398 kts | 331° |
| 2026-05-07 15:13 | 42.58997 | 27.53523 | 28112 ft | 396 kts | 324° |
| 2026-05-07 15:13 | 42.63438 | 27.49161 | 28109 ft | 397 kts | 324° |
| 2026-05-07 15:14 | 42.67957 | 27.44742 | 28110 ft | 398 kts | 323° |
| 2026-05-07 15:14 | 42.72411 | 27.40350 | 28107 ft | 398 kts | 324° |
| 2026-05-07 15:15 | 42.76929 | 27.35903 | 28109 ft | 398 kts | 323° |
| 2026-05-07 15:15 | 42.81108 | 27.31775 | 28110 ft | 399 kts | 323° |
| 2026-05-07 15:16 | 42.85610 | 27.27323 | 28111 ft | 399 kts | 323° |
| 2026-05-07 15:16 | 42.90094 | 27.22880 | 28096 ft | 399 kts | 323° |
| 2026-05-07 15:17 | 42.93823 | 27.19179 | 28093 ft | 398 kts | 323° |
| 2026-05-07 15:17 | 42.98315 | 27.14712 | 28092 ft | 397 kts | 323° |
| 2026-05-07 15:18 | 43.02756 | 27.10292 | 28090 ft | 398 kts | 323° |
| 2026-05-07 15:18 | 43.07226 | 27.05828 | 28092 ft | 399 kts | 323° |
| 2026-05-07 15:19 | 43.11845 | 27.01440 | 28091 ft | 416 kts | 326° |
| 2026-05-07 15:19 | 43.14293 | 26.99208 | 28099 ft | 430 kts | 325° |
| 2026-05-07 15:19 | 43.16814 | 26.96883 | 28096 ft | 443 kts | 326° |
| 2026-05-07 15:20 | 43.22038 | 26.92158 | 28087 ft | 453 kts | 326° |
| 2026-05-07 15:20 | 43.27285 | 26.87373 | 28086 ft | 454 kts | 326° |
| 2026-05-07 15:21 | 43.32550 | 26.82570 | 28084 ft | 454 kts | 326° |
| 2026-05-07 15:21 | 43.37817 | 26.77754 | 28074 ft | 455 kts | 326° |
| 2026-05-07 15:22 | 43.43070 | 26.72939 | 28072 ft | 454 kts | 326° |
| 2026-05-07 15:22 | 43.48207 | 26.68225 | 28038 ft | 426 kts | 326° |
| 2026-05-07 15:23 | 43.50617 | 26.66008 | 28040 ft | 407 kts | 325° |
| 2026-05-07 15:23 | 43.52915 | 26.63889 | 28041 ft | 392 kts | 325° |
| 2026-05-07 15:23 | 43.57464 | 26.59696 | 28036 ft | 397 kts | 325° |
| 2026-05-07 15:24 | 43.62067 | 26.55446 | 28038 ft | 399 kts | 325° |
| 2026-05-07 15:24 | 43.66678 | 26.51179 | 28040 ft | 399 kts | 325° |
| 2026-05-07 15:25 | 43.68969 | 26.49055 | 27978 ft | 392 kts | 325° |
| 2026-05-07 15:25 | 43.71204 | 26.46984 | 27573 ft | 385 kts | 325° |
| 2026-05-07 15:25 | 43.73420 | 26.44927 | 27091 ft | 381 kts | 325° |
| 2026-05-07 15:25 | 43.75610 | 26.42891 | 26642 ft | 377 kts | 325° |
| 2026-05-07 15:26 | 43.77770 | 26.40883 | 26202 ft | 372 kts | 325° |
| 2026-05-07 15:26 | 43.79906 | 26.38895 | 25752 ft | 368 kts | 325° |
| 2026-05-07 15:26 | 43.82023 | 26.36922 | 25308 ft | 365 kts | 325° |
| 2026-05-07 15:26 | 43.84114 | 26.34973 | 25071 ft | 359 kts | 325° |
| 2026-05-07 15:27 | 43.86188 | 26.33037 | 24927 ft | 363 kts | 325° |
| 2026-05-07 15:27 | 43.88274 | 26.31087 | 24527 ft | 359 kts | 325° |
| 2026-05-07 15:27 | 43.90330 | 26.29166 | 24109 ft | 355 kts | 325° |
| 2026-05-07 15:27 | 43.92362 | 26.27266 | 23684 ft | 350 kts | 325° |
| 2026-05-07 15:28 | 43.94370 | 26.25385 | 23253 ft | 346 kts | 325° |
| 2026-05-07 15:28 | 43.96352 | 26.23527 | 22860 ft | 341 kts | 325° |
| 2026-05-07 15:28 | 43.98305 | 26.21696 | 22462 ft | 337 kts | 325° |
| 2026-05-07 15:28 | 44.00228 | 26.19860 | 22075 ft | 335 kts | 324° |
| 2026-05-07 15:29 | 44.02125 | 26.17988 | 21678 ft | 335 kts | 323° |
| 2026-05-07 15:29 | 44.04036 | 26.16111 | 21284 ft | 335 kts | 324° |
| 2026-05-07 15:29 | 44.05933 | 26.14271 | 20889 ft | 331 kts | 324° |
| 2026-05-07 15:29 | 44.07804 | 26.12456 | 20503 ft | 326 kts | 324° |
| 2026-05-07 15:30 | 44.09639 | 26.10631 | 20087 ft | 321 kts | 320° |
| 2026-05-07 15:30 | 44.11049 | 26.08257 | 19488 ft | 321 kts | 297° |
| 2026-05-07 15:30 | 44.11843 | 26.05356 | 18831 ft | 323 kts | 287° |
| 2026-05-07 15:30 | 44.12533 | 26.02359 | 18150 ft | 327 kts | 287° |
| 2026-05-07 15:31 | 44.13225 | 25.99339 | 17554 ft | 328 kts | 287° |
| 2026-05-07 15:31 | 44.13919 | 25.96319 | 16994 ft | 327 kts | 287° |
| 2026-05-07 15:31 | 44.14608 | 25.93314 | 16431 ft | 326 kts | 287° |
| 2026-05-07 15:31 | 44.15296 | 25.90310 | 15866 ft | 324 kts | 287° |
| 2026-05-07 15:32 | 44.15977 | 25.87329 | 15303 ft | 323 kts | 287° |
| 2026-05-07 15:32 | 44.16655 | 25.84362 | 14736 ft | 322 kts | 287° |
| 2026-05-07 15:32 | 44.17325 | 25.81425 | 14174 ft | 321 kts | 287° |
| 2026-05-07 15:32 | 44.18005 | 25.78436 | 13609 ft | 319 kts | 287° |
| 2026-05-07 15:33 | 44.18671 | 25.75509 | 13083 ft | 316 kts | 287° |
| 2026-05-07 15:33 | 44.19330 | 25.72609 | 12577 ft | 312 kts | 287° |
| 2026-05-07 15:33 | 44.19982 | 25.69738 | 12075 ft | 309 kts | 287° |
| 2026-05-07 15:33 | 44.20615 | 25.66938 | 11579 ft | 305 kts | 287° |
| 2026-05-07 15:34 | 44.21251 | 25.64126 | 11080 ft | 302 kts | 287° |
| 2026-05-07 15:34 | 44.21877 | 25.61355 | 10583 ft | 299 kts | 287° |
| 2026-05-07 15:34 | 44.22501 | 25.58599 | 10083 ft | 297 kts | 287° |
| 2026-05-07 15:34 | 44.23121 | 25.55868 | 9569 ft | 294 kts | 289° |
| 2026-05-07 15:35 | 44.24145 | 25.53454 | 9073 ft | 289 kts | 313° |
| 2026-05-07 15:35 | 44.25772 | 25.51868 | 8586 ft | 287 kts | 338° |
| 2026-05-07 15:35 | 44.27708 | 25.51282 | 8104 ft | 283 kts | 353° |
| 2026-05-07 15:35 | 44.29656 | 25.50968 | 7605 ft | 281 kts | 353° |
| 2026-05-07 15:36 | 44.31595 | 25.50684 | 7115 ft | 279 kts | 353° |
| 2026-05-07 15:36 | 44.33484 | 25.50393 | 7030 ft | 268 kts | 353° |
| 2026-05-07 15:36 | 44.35350 | 25.50094 | 6930 ft | 274 kts | 353° |
| 2026-05-07 15:36 | 44.37238 | 25.49793 | 6622 ft | 271 kts | 353° |
| 2026-05-07 15:37 | 44.39115 | 25.49498 | 6323 ft | 270 kts | 353° |
| 2026-05-07 15:37 | 44.40967 | 25.49526 | 5996 ft | 269 kts | 18° |
| 2026-05-07 15:37 | 44.42489 | 25.50964 | 5775 ft | 267 kts | 50° |
| 2026-05-07 15:37 | 44.43492 | 25.53143 | 5542 ft | 266 kts | 62° |
| 2026-05-07 15:38 | 44.44344 | 25.55432 | 5302 ft | 265 kts | 62° |
| 2026-05-07 15:38 | 44.45248 | 25.57671 | 5048 ft | 261 kts | 59° |
| 2026-05-07 15:38 | 44.46173 | 25.59798 | 4800 ft | 251 kts | 59° |
| 2026-05-07 15:38 | 44.47064 | 25.61858 | 4561 ft | 245 kts | 60° |
| 2026-05-07 15:39 | 44.47931 | 25.63898 | 4314 ft | 242 kts | 60° |
| 2026-05-07 15:39 | 44.48783 | 25.65911 | 4085 ft | 241 kts | 60° |
| 2026-05-07 15:39 | 44.49634 | 25.67924 | 3839 ft | 239 kts | 60° |
| 2026-05-07 15:39 | 44.50482 | 25.69929 | 3613 ft | 238 kts | 60° |
| 2026-05-07 15:40 | 44.51326 | 25.71915 | 3403 ft | 237 kts | 60° |
| 2026-05-07 15:40 | 44.52166 | 25.73898 | 3195 ft | 236 kts | 60° |
| 2026-05-07 15:40 | 44.53000 | 25.75872 | 2994 ft | 235 kts | 60° |
| 2026-05-07 15:40 | 44.53833 | 25.77848 | 2782 ft | 234 kts | 61° |
| 2026-05-07 15:41 | 44.54661 | 25.79808 | 2603 ft | 234 kts | 60° |
| 2026-05-07 15:41 | 44.55464 | 25.81776 | 2490 ft | 229 kts | 66° |
| 2026-05-07 15:41 | 44.55780 | 25.83961 | 2490 ft | 230 kts | 85° |
| 2026-05-07 15:41 | 44.55979 | 25.86191 | 2503 ft | 232 kts | 84° |
| 2026-05-07 15:42 | 44.56158 | 25.88436 | 2501 ft | 231 kts | 85° |
| 2026-05-07 15:42 | 44.56319 | 25.90676 | 2500 ft | 230 kts | 85° |
| 2026-05-07 15:42 | 44.56486 | 25.92842 | 2488 ft | 217 kts | 85° |
| 2026-05-07 15:42 | 44.56643 | 25.94911 | 2217 ft | 206 kts | 85° |
| 2026-05-07 15:43 | 44.56789 | 25.96813 | 1952 ft | 188 kts | 84° |
| 2026-05-07 15:43 | 44.56916 | 25.98543 | 1710 ft | 169 kts | 85° |
| 2026-05-07 15:43 | 44.57032 | 26.00098 | 1492 ft | 153 kts | 84° |
| 2026-05-07 15:43 | 44.57141 | 26.01544 | 1301 ft | 147 kts | 84° |
| 2026-05-07 15:44 | 44.57249 | 26.02970 | 1107 ft | 148 kts | 84° |
| 2026-05-07 15:44 | 44.57353 | 26.04401 | 921 ft | 147 kts | 84° |
| 2026-05-07 15:44 | 44.57472 | 26.05834 | 715 ft | 147 kts | 83° |
| 2026-05-07 15:44 | 44.57573 | 26.07257 | 517 ft | 146 kts | 85° |
| 2026-05-07 15:45 | 44.57673 | 26.08665 | 357 ft | 145 kts | 78° |
| 2026-05-07 15:45 | 44.57773 | 26.09819 | 325 ft | 85 kts | 82° |
| 2026-05-07 15:45 | 44.57814 | 26.10445 | 326 ft | 45 kts | 85° |
| 2026-05-07 15:45 | 44.57832 | 26.10779 | 328 ft | 25 kts | 91° |
| 2026-05-07 15:46 | 44.57733 | 26.11165 | 328 ft | 8 kts | 166° |
| 2026-05-07 15:46 | 44.57706 | 26.11145 | 323 ft | 3 kts | 234° |
| 2026-05-07 15:46 | 44.57695 | 26.11110 | 325 ft | 5 kts | 253° |
| 2026-05-07 15:47 | 44.57688 | 26.11056 | 324 ft | 7 kts | 261° |
| 2026-05-07 15:47 | 44.57681 | 26.10979 | 327 ft | 9 kts | 262° |
| 2026-05-07 15:47 | 44.57673 | 26.10882 | 326 ft | 11 kts | 267° |
| 2026-05-07 15:47 | 44.57666 | 26.10758 | 324 ft | 14 kts | 263° |
| 2026-05-07 15:48 | 44.57653 | 26.10620 | 324 ft | 15 kts | 262° |
| 2026-05-07 15:48 | 44.57641 | 26.10471 | 324 ft | 16 kts | 264° |
| 2026-05-07 15:48 | 44.57629 | 26.10311 | 325 ft | 17 kts | 264° |
| 2026-05-07 15:48 | 44.57617 | 26.10143 | 328 ft | 18 kts | 264° |
| 2026-05-07 15:49 | 44.57606 | 26.09973 | 326 ft | 18 kts | 264° |
| 2026-05-07 15:49 | 44.57593 | 26.09798 | 325 ft | 19 kts | 264° |
| 2026-05-07 15:49 | 44.57581 | 26.09615 | 324 ft | 19 kts | 264° |
| 2026-05-07 15:49 | 44.57564 | 26.09424 | 325 ft | 20 kts | 262° |
| 2026-05-07 15:50 | 44.57547 | 26.09222 | 325 ft | 21 kts | 264° |
| 2026-05-07 15:50 | 44.57533 | 26.09013 | 326 ft | 22 kts | 264° |
| 2026-05-07 15:50 | 44.57519 | 26.08820 | 324 ft | 16 kts | 262° |
| 2026-05-07 15:50 | 44.57509 | 26.08714 | 327 ft | 10 kts | 263° |
| 2026-05-07 15:51 | 44.57503 | 26.08641 | 326 ft | 7 kts | 264° |
| 2026-05-07 15:51 | 44.57497 | 26.08561 | 324 ft | 10 kts | 264° |
| 2026-05-07 15:51 | 44.57468 | 26.08484 | 326 ft | 8 kts | 207° |
| 2026-05-07 15:51 | 44.57411 | 26.08481 | 325 ft | 11 kts | 175° |
| 2026-05-07 15:52 | 44.57324 | 26.08492 | 326 ft | 13 kts | 174° |
| 2026-05-07 15:52 | 44.57244 | 26.08487 | 326 ft | 7 kts | 219° |
| 2026-05-07 15:52 | 44.57232 | 26.08443 | 325 ft | 5 kts | 259° |
| 2026-05-07 15:52 | 44.57226 | 26.08384 | 324 ft | 7 kts | 262° |
| 2026-05-07 15:53 | 44.57202 | 26.08329 | 323 ft | 7 kts | 224° |
| 2026-05-07 15:53 | 44.57161 | 26.08281 | 326 ft | 8 kts | 219° |
| 2026-05-07 15:53 | 44.57135 | 26.08250 | 323 ft | 4 kts | 219° |
| 2026-05-07 15:53 | 44.57126 | 26.08239 | 328 ft | 0 kts | 219° |